createdAt,value
2017-08-23T00:00:16.474Z,91.88
2017-08-23T00:01:17.358Z,92.26
2017-08-23T00:02:17.992Z,92.46
2017-08-23T00:03:18.628Z,92.55
2017-08-23T00:04:19.264Z,92.94
2017-08-23T00:05:19.905Z,91.78
2017-08-23T00:06:20.543Z,92.60
2017-08-23T00:07:21.183Z,91.20
2017-08-23T00:08:21.814Z,92.94
2017-08-23T00:09:22.900Z,92.46
2017-08-23T00:10:23.580Z,91.88
2017-08-23T00:11:24.231Z,93.13
2017-08-23T00:12:24.861Z,92.80
2017-08-23T00:13:25.507Z,93.04
2017-08-23T00:14:26.149Z,91.88
2017-08-23T00:15:26.791Z,91.88
2017-08-23T00:16:27.419Z,91.78
2017-08-23T00:17:28.408Z,93.80
2017-08-23T00:18:29.099Z,93.42
2017-08-23T00:19:29.733Z,93.04
2017-08-23T00:20:30.375Z,92.26
2017-08-23T00:21:31.008Z,93.08
2017-08-23T00:22:31.648Z,91.83
2017-08-23T00:23:32.233Z,91.59
2017-08-23T00:24:32.874Z,93.42
2017-08-23T00:25:33.506Z,92.07
2017-08-23T00:26:34.492Z,93.13
2017-08-23T00:27:35.132Z,93.13
2017-08-23T00:28:35.765Z,92.74
2017-08-23T00:29:36.406Z,91.88
2017-08-23T00:30:36.987Z,92.46
2017-08-23T00:31:37.626Z,92.36
2017-08-23T00:32:38.262Z,93.13
2017-08-23T00:33:38.896Z,93.62
2017-08-23T00:34:39.739Z,92.55
2017-08-23T00:35:40.373Z,93.42
2017-08-23T00:36:41.004Z,92.55
2017-08-23T00:37:41.640Z,92.36
2017-08-23T00:38:42.281Z,91.64
2017-08-23T00:39:42.917Z,93.37
2017-08-23T00:40:43.557Z,92.89
2017-08-23T00:41:44.194Z,94.05
2017-08-23T00:42:45.180Z,94.24
2017-08-23T00:43:45.816Z,94.15
2017-08-23T00:44:46.450Z,93.90
2017-08-23T00:45:47.084Z,93.80
2017-08-23T00:46:47.728Z,93.42
2017-08-23T00:47:48.361Z,92.89
2017-08-23T00:48:48.998Z,93.13
2017-08-23T00:49:49.642Z,92.74
2017-08-23T00:50:50.477Z,93.52
2017-08-23T00:51:51.110Z,94.48
2017-08-23T00:52:51.755Z,93.80
2017-08-23T00:53:52.390Z,93.71
2017-08-23T00:54:53.028Z,93.52
2017-08-23T00:55:53.717Z,93.71
2017-08-23T00:56:54.348Z,93.71
2017-08-23T00:57:54.989Z,93.80
2017-08-23T00:58:55.828Z,93.23
2017-08-23T00:59:56.471Z,93.32
2017-08-23T01:00:57.112Z,93.80
2017-08-23T01:01:57.797Z,92.74
2017-08-23T01:02:58.436Z,93.42
2017-08-23T01:03:59.078Z,93.23
2017-08-23T01:04:59.713Z,93.42
2017-08-23T01:06:00.349Z,93.32
2017-08-23T01:07:00.981Z,93.90
2017-08-23T01:08:01.769Z,93.23
2017-08-23T01:09:02.404Z,93.28
2017-08-23T01:10:03.040Z,93.23
2017-08-23T01:11:03.680Z,93.80
2017-08-23T01:12:04.318Z,93.23
2017-08-23T01:13:04.957Z,93.80
2017-08-23T01:14:05.595Z,93.32
2017-08-23T01:15:06.286Z,93.80
2017-08-23T01:16:07.218Z,93.42
2017-08-23T01:17:07.860Z,92.46
2017-08-23T01:18:08.491Z,93.23
2017-08-23T01:19:09.134Z,93.57
2017-08-23T01:20:09.775Z,94.38
2017-08-23T01:21:10.405Z,93.32
2017-08-23T01:22:11.042Z,93.71
2017-08-23T01:23:14.911Z,93.52
2017-08-23T01:24:15.705Z,93.52
2017-08-23T01:25:16.340Z,93.71
2017-08-23T01:26:16.970Z,93.62
2017-08-23T01:27:17.617Z,93.23
2017-08-23T01:28:18.246Z,93.71
2017-08-23T01:29:18.882Z,93.52
2017-08-23T01:30:19.515Z,93.80
2017-08-23T01:31:20.157Z,93.42
2017-08-23T01:32:20.997Z,93.52
2017-08-23T01:33:21.640Z,94.00
2017-08-23T01:34:22.267Z,94.38
2017-08-23T01:35:22.904Z,94.29
2017-08-23T01:36:23.544Z,94.29
2017-08-23T01:37:24.182Z,93.80
2017-08-23T01:38:24.820Z,93.80
2017-08-23T01:39:25.405Z,93.52
2017-08-23T01:40:26.038Z,93.62
2017-08-23T01:41:26.824Z,93.04
2017-08-23T01:42:27.459Z,93.80
2017-08-23T01:43:28.094Z,93.52
2017-08-23T01:44:28.731Z,93.52
2017-08-23T01:45:29.370Z,93.42
2017-08-23T01:46:30.013Z,93.80
2017-08-23T01:47:30.642Z,94.00
2017-08-23T01:48:31.279Z,93.04
2017-08-23T01:49:32.112Z,94.10
2017-08-23T01:50:32.762Z,93.47
2017-08-23T01:51:33.451Z,93.95
2017-08-23T01:52:34.086Z,93.18
2017-08-23T01:53:34.730Z,93.95
2017-08-23T01:54:35.366Z,94.05
2017-08-23T01:55:35.998Z,93.37
2017-08-23T01:56:36.634Z,93.71
2017-08-23T01:57:37.420Z,92.99
2017-08-23T01:58:38.057Z,93.76
2017-08-23T01:59:38.697Z,93.95
2017-08-23T02:00:39.332Z,93.66
2017-08-23T02:01:39.971Z,94.34
2017-08-23T02:02:40.604Z,93.95
2017-08-23T02:03:41.245Z,94.43
2017-08-23T02:04:41.881Z,94.05
2017-08-23T02:05:42.712Z,94.34
2017-08-23T02:06:43.353Z,93.80
2017-08-23T02:07:43.986Z,93.80
2017-08-23T02:08:44.628Z,93.57
2017-08-23T02:09:45.265Z,94.05
2017-08-23T02:10:45.895Z,93.42
2017-08-23T02:11:46.529Z,94.24
2017-08-23T02:12:47.164Z,94.00
2017-08-23T02:13:48.020Z,94.29
2017-08-23T02:14:48.646Z,94.38
2017-08-23T02:15:49.228Z,94.53
2017-08-23T02:16:49.875Z,94.48
2017-08-23T02:17:50.515Z,94.68
2017-08-23T02:18:51.151Z,94.58
2017-08-23T02:19:51.784Z,93.90
2017-08-23T02:20:52.425Z,93.90
2017-08-23T02:21:53.058Z,93.52
2017-08-23T02:22:53.901Z,94.53
2017-08-23T02:23:54.539Z,93.42
2017-08-23T02:24:55.171Z,93.80
2017-08-23T02:25:55.813Z,93.71
2017-08-23T02:26:56.451Z,93.62
2017-08-23T02:27:57.088Z,94.38
2017-08-23T02:28:57.732Z,93.85
2017-08-23T02:29:58.367Z,93.62
2017-08-23T02:30:59.201Z,94.00
2017-08-23T02:31:59.841Z,94.58
2017-08-23T02:33:00.471Z,94.68
2017-08-23T02:34:01.106Z,94.43
2017-08-23T02:35:01.742Z,93.80
2017-08-23T02:36:02.381Z,93.80
2017-08-23T02:37:03.026Z,93.80
2017-08-23T02:38:03.668Z,93.95
2017-08-23T02:39:04.501Z,94.48
2017-08-23T02:40:05.138Z,94.48
2017-08-23T02:41:05.777Z,94.48
2017-08-23T02:42:06.406Z,94.58
2017-08-23T02:43:07.044Z,94.68
2017-08-23T02:44:07.679Z,94.10
2017-08-23T02:45:08.316Z,94.77
2017-08-23T02:46:08.956Z,94.48
2017-08-23T02:47:09.789Z,93.18
2017-08-23T02:48:10.425Z,93.80
2017-08-23T02:49:11.059Z,94.58
2017-08-23T02:50:11.694Z,93.71
2017-08-23T02:51:12.334Z,93.80
2017-08-23T02:52:12.965Z,93.80
2017-08-23T02:53:13.600Z,93.85
2017-08-23T02:54:14.236Z,93.80
2017-08-23T02:55:14.882Z,94.00
2017-08-23T02:56:15.664Z,94.58
2017-08-23T02:57:16.297Z,94.48
2017-08-23T02:58:16.937Z,94.10
2017-08-23T02:59:17.569Z,94.77
2017-08-23T03:00:18.209Z,94.68
2017-08-23T03:01:18.847Z,94.38
2017-08-23T03:02:19.486Z,94.68
2017-08-23T03:03:20.118Z,94.68
2017-08-23T03:04:20.953Z,94.58
2017-08-23T03:05:21.597Z,94.29
2017-08-23T03:06:22.233Z,94.68
2017-08-23T03:07:22.862Z,94.68
2017-08-23T03:08:23.502Z,94.48
2017-08-23T03:09:24.141Z,94.68
2017-08-23T03:10:24.773Z,94.68
2017-08-23T03:11:25.408Z,94.58
2017-08-23T03:12:26.253Z,94.58
2017-08-23T03:13:26.883Z,94.48
2017-08-23T03:14:27.519Z,94.29
2017-08-23T03:15:28.160Z,94.29
2017-08-23T03:16:28.792Z,94.58
2017-08-23T03:17:29.429Z,94.00
2017-08-23T03:18:30.068Z,94.00
2017-08-23T03:19:30.707Z,93.47
2017-08-23T03:20:31.643Z,94.10
2017-08-23T03:21:32.281Z,93.32
2017-08-23T03:22:32.918Z,93.71
2017-08-23T03:23:33.551Z,93.04
2017-08-23T03:24:34.188Z,92.94
2017-08-23T03:25:34.826Z,93.57
2017-08-23T03:26:35.459Z,94.58
2017-08-23T03:27:36.094Z,95.35
2017-08-23T03:28:36.880Z,95.11
2017-08-23T03:29:37.518Z,95.16
2017-08-23T03:30:38.159Z,94.96
2017-08-23T03:31:38.793Z,94.87
2017-08-23T03:32:39.436Z,94.58
2017-08-23T03:33:40.065Z,95.11
2017-08-23T03:34:40.705Z,94.87
2017-08-23T03:35:41.344Z,94.38
2017-08-23T03:36:41.981Z,93.62
2017-08-23T03:37:42.874Z,93.80
2017-08-23T03:38:43.507Z,94.48
2017-08-23T03:39:44.146Z,94.48
2017-08-23T03:40:44.778Z,94.38
2017-08-23T03:41:45.418Z,94.58
2017-08-23T03:42:46.058Z,94.48
2017-08-23T03:43:46.691Z,94.38
2017-08-23T03:44:47.326Z,94.00
2017-08-23T03:45:48.261Z,93.18
2017-08-23T03:46:48.908Z,93.95
2017-08-23T03:47:49.537Z,94.24
2017-08-23T03:48:50.923Z,93.66
2017-08-23T03:49:51.563Z,93.37
2017-08-23T03:50:52.194Z,93.76
2017-08-23T03:51:52.828Z,93.37
2017-08-23T03:52:53.465Z,94.53
2017-08-23T03:53:54.299Z,94.53
2017-08-23T03:54:54.938Z,94.82
2017-08-23T03:55:55.570Z,94.53
2017-08-23T03:56:56.217Z,94.53
2017-08-23T03:57:56.847Z,94.43
2017-08-23T03:58:57.481Z,94.63
2017-08-23T03:59:58.127Z,94.05
2017-08-23T04:00:58.762Z,93.57
2017-08-23T04:01:59.554Z,94.05
2017-08-23T04:03:00.180Z,93.28
2017-08-23T04:04:00.817Z,93.57
2017-08-23T04:05:01.453Z,93.76
2017-08-23T04:06:02.093Z,93.76
2017-08-23T04:07:02.726Z,94.24
2017-08-23T04:08:03.362Z,93.95
2017-08-23T04:09:03.999Z,93.95
2017-08-23T04:10:04.639Z,93.57
2017-08-23T04:11:05.471Z,93.28
2017-08-23T04:12:06.113Z,93.76
2017-08-23T04:13:06.746Z,94.24
2017-08-23T04:14:07.383Z,94.63
2017-08-23T04:15:08.074Z,94.73
2017-08-23T04:16:08.707Z,93.76
2017-08-23T04:17:09.349Z,93.85
2017-08-23T04:18:09.979Z,93.28
2017-08-23T04:19:10.765Z,93.76
2017-08-23T04:20:11.399Z,92.80
2017-08-23T04:21:12.035Z,92.99
2017-08-23T04:22:12.676Z,92.99
2017-08-23T04:23:13.306Z,93.95
2017-08-23T04:24:13.942Z,94.34
2017-08-23T04:25:14.584Z,94.34
2017-08-23T04:26:15.226Z,93.28
2017-08-23T04:27:16.059Z,93.57
2017-08-23T04:28:16.697Z,93.57
2017-08-23T04:29:17.339Z,94.43
2017-08-23T04:30:17.972Z,94.63
2017-08-23T04:31:18.604Z,94.24
2017-08-23T04:32:19.248Z,94.24
2017-08-23T04:33:19.890Z,94.63
2017-08-23T04:34:20.526Z,94.24
2017-08-23T04:35:21.358Z,93.76
2017-08-23T04:36:22.001Z,93.57
2017-08-23T04:37:35.504Z,93.08
2017-08-23T04:38:36.137Z,93.76
2017-08-23T04:39:36.770Z,93.85
2017-08-23T04:40:37.418Z,93.76
2017-08-23T04:41:38.052Z,94.63
2017-08-23T04:42:38.686Z,94.43
2017-08-23T04:43:39.526Z,94.15
2017-08-23T04:44:40.159Z,93.76
2017-08-23T04:45:40.795Z,93.57
2017-08-23T04:46:41.429Z,94.24
2017-08-23T04:47:42.071Z,95.11
2017-08-23T04:48:42.706Z,94.43
2017-08-23T04:49:43.347Z,94.53
2017-08-23T04:50:43.976Z,94.63
2017-08-23T04:51:44.812Z,93.76
2017-08-23T04:52:45.447Z,93.85
2017-08-23T04:53:46.082Z,94.43
2017-08-23T04:54:46.718Z,93.57
2017-08-23T04:55:47.359Z,94.53
2017-08-23T04:56:47.990Z,93.28
2017-08-23T04:57:48.638Z,93.95
2017-08-23T04:58:49.263Z,94.34
2017-08-23T04:59:49.905Z,94.43
2017-08-23T05:00:50.743Z,94.53
2017-08-23T05:01:51.381Z,94.43
2017-08-23T05:02:52.021Z,94.53
2017-08-23T05:03:52.659Z,94.53
2017-08-23T05:04:53.346Z,94.63
2017-08-23T05:05:53.979Z,94.53
2017-08-23T05:06:54.617Z,94.24
2017-08-23T05:07:55.258Z,94.92
2017-08-23T05:08:56.091Z,94.53
2017-08-23T05:09:56.726Z,95.11
2017-08-23T05:10:57.369Z,94.63
2017-08-23T05:11:58.000Z,93.95
2017-08-23T05:12:58.641Z,93.76
2017-08-23T05:13:59.283Z,93.95
2017-08-23T05:14:59.919Z,93.37
2017-08-23T05:16:00.551Z,94.24
2017-08-23T05:17:01.391Z,94.24
2017-08-23T05:18:02.030Z,94.63
2017-08-23T05:19:02.666Z,94.53
2017-08-23T05:20:03.300Z,94.53
2017-08-23T05:21:03.935Z,94.24
2017-08-23T05:22:04.575Z,94.53
2017-08-23T05:23:05.213Z,94.53
2017-08-23T05:24:05.844Z,94.53
2017-08-23T05:25:06.631Z,94.34
2017-08-23T05:26:07.272Z,94.43
2017-08-23T05:27:07.910Z,94.92
2017-08-23T05:28:08.554Z,94.73
2017-08-23T05:29:09.183Z,94.53
2017-08-23T05:30:09.816Z,94.24
2017-08-23T05:31:10.467Z,94.34
2017-08-23T05:32:11.094Z,93.95
2017-08-23T05:33:11.734Z,94.34
2017-08-23T05:34:12.719Z,94.53
2017-08-23T05:35:13.359Z,94.63
2017-08-23T05:36:13.996Z,94.53
2017-08-23T05:37:14.629Z,94.15
2017-08-23T05:38:15.263Z,93.85
2017-08-23T05:39:15.899Z,93.85
2017-08-23T05:40:16.536Z,93.85
2017-08-23T05:41:17.177Z,93.95
2017-08-23T05:42:18.064Z,93.76
2017-08-23T05:43:18.695Z,94.53
2017-08-23T05:44:19.333Z,93.52
2017-08-23T05:45:19.978Z,94.34
2017-08-23T05:46:20.612Z,93.04
2017-08-23T05:47:21.249Z,93.13
2017-08-23T05:48:21.894Z,95.36
2017-08-23T05:49:22.575Z,95.01
2017-08-23T05:50:23.461Z,94.48
2017-08-23T05:51:24.096Z,94.73
2017-08-23T05:52:24.738Z,94.68
2017-08-23T05:53:25.377Z,95.06
2017-08-23T05:54:26.014Z,94.48
2017-08-23T05:55:26.653Z,94.53
2017-08-23T05:56:27.284Z,94.20
2017-08-23T05:57:27.921Z,94.24
2017-08-23T05:58:28.756Z,94.63
2017-08-23T05:59:29.392Z,93.85
2017-08-23T06:00:30.031Z,93.95
2017-08-23T06:01:30.664Z,93.76
2017-08-23T06:02:31.297Z,94.00
2017-08-23T06:03:31.936Z,94.63
2017-08-23T06:04:32.571Z,94.39
2017-08-23T06:05:33.211Z,93.95
2017-08-23T06:06:33.998Z,93.71
2017-08-23T06:07:34.630Z,93.37
2017-08-23T06:08:35.270Z,93.71
2017-08-23T06:09:35.916Z,93.71
2017-08-23T06:10:36.542Z,93.33
2017-08-23T06:11:37.187Z,93.85
2017-08-23T06:12:37.828Z,93.43
2017-08-23T06:13:38.465Z,93.71
2017-08-23T06:14:39.097Z,93.13
2017-08-23T06:17:38.285Z,94.20
2017-08-23T06:18:38.919Z,93.91
2017-08-23T06:19:39.551Z,93.81
2017-08-23T06:20:40.200Z,93.91
2017-08-23T06:21:40.832Z,93.71
2017-08-23T06:22:41.467Z,93.91
2017-08-23T06:23:42.307Z,93.62
2017-08-23T06:24:42.938Z,93.62
2017-08-23T06:25:43.575Z,93.62
2017-08-23T06:26:44.210Z,94.10
2017-08-23T06:27:44.844Z,93.81
2017-08-23T06:28:45.486Z,93.71
2017-08-23T06:29:46.126Z,94.20
2017-08-23T06:30:46.756Z,94.00
2017-08-23T06:31:47.591Z,94.10
2017-08-23T06:32:48.225Z,93.91
2017-08-23T06:33:48.860Z,94.10
2017-08-23T06:34:49.501Z,94.58
2017-08-23T06:35:50.137Z,94.10
2017-08-23T06:37:03.645Z,94.58
2017-08-23T06:38:04.273Z,94.48
2017-08-23T06:39:04.905Z,94.20
2017-08-23T06:40:05.752Z,94.29
2017-08-23T06:41:06.387Z,94.29
2017-08-23T06:42:07.019Z,93.81
2017-08-23T06:43:07.659Z,94.39
2017-08-23T06:44:08.292Z,94.96
2017-08-23T06:45:08.927Z,94.48
2017-08-23T06:46:09.561Z,94.58
2017-08-23T06:47:10.200Z,94.58
2017-08-23T06:48:10.989Z,94.29
2017-08-23T06:49:11.632Z,94.39
2017-08-23T06:50:12.316Z,94.48
2017-08-23T06:51:12.949Z,94.48
2017-08-23T06:52:13.585Z,94.58
2017-08-23T06:53:14.221Z,94.78
2017-08-23T06:54:14.857Z,94.58
2017-08-23T06:55:15.499Z,94.96
2017-08-23T06:56:16.135Z,95.06
2017-08-23T06:57:16.966Z,94.96
2017-08-23T06:58:17.604Z,95.26
2017-08-23T06:59:18.244Z,94.73
2017-08-23T07:00:18.880Z,94.53
2017-08-23T07:01:19.518Z,94.96
2017-08-23T07:02:20.156Z,94.58
2017-08-23T07:03:20.796Z,94.48
2017-08-23T07:04:21.433Z,95.06
2017-08-23T07:26:45.911Z,95.06
2017-08-23T07:27:46.544Z,95.26
2017-08-23T07:30:05.133Z,95.69
2017-08-23T07:37:15.529Z,95.21
2017-08-23T07:50:26.356Z,95.79
2017-08-23T07:51:26.991Z,95.88
2017-08-23T07:52:27.673Z,95.01
2017-08-23T07:53:28.383Z,95.11
2017-08-23T07:54:29.946Z,95.88
2017-08-23T07:55:30.798Z,95.01
2017-08-23T07:56:32.383Z,95.31
2017-08-23T08:00:24.736Z,93.76
2017-08-23T08:02:02.274Z,93.37
2017-08-23T08:03:03.056Z,95.31
2017-08-23T08:05:43.029Z,94.92
2017-08-23T08:06:43.661Z,95.31
2017-08-23T08:12:06.239Z,94.63
2017-08-23T08:13:06.830Z,92.80
2017-08-23T08:14:07.464Z,92.50
2017-08-23T08:15:08.301Z,92.12
2017-08-23T08:16:08.938Z,94.15
2017-08-23T08:18:11.211Z,94.53
2017-08-23T08:19:11.846Z,93.76
2017-08-23T08:20:12.830Z,92.41
2017-08-23T08:21:13.465Z,92.02
2017-08-23T08:23:18.159Z,92.41
2017-08-23T08:24:18.799Z,92.41
2017-08-23T08:25:19.432Z,92.41
2017-08-23T08:26:20.068Z,92.41
2017-08-23T08:27:20.704Z,92.36
2017-08-23T08:29:23.184Z,92.27
2017-08-23T08:30:23.815Z,92.46
2017-08-23T08:31:24.455Z,92.65
2017-08-23T08:32:25.093Z,92.85
2017-08-23T08:33:25.733Z,92.65
2017-08-23T08:34:27.075Z,92.94
2017-08-23T08:35:27.669Z,92.94
2017-08-23T08:36:28.513Z,93.71
2017-08-23T08:37:29.144Z,92.56
2017-08-23T08:38:29.779Z,92.75
2017-08-23T08:39:30.424Z,93.04
2017-08-23T08:40:31.055Z,93.62
2017-08-23T08:41:31.697Z,93.33
2017-08-23T08:42:32.336Z,93.23
2017-08-23T08:43:32.977Z,92.46
2017-08-23T08:44:33.811Z,93.04
2017-08-23T08:45:34.453Z,93.43
2017-08-23T08:46:35.092Z,94.00
2017-08-23T08:47:35.730Z,92.94
2017-08-23T08:48:36.363Z,92.36
2017-08-23T08:49:36.999Z,92.36
2017-08-23T08:50:37.638Z,92.85
2017-08-23T08:51:38.281Z,92.36
2017-08-23T08:52:38.909Z,92.36
2017-08-23T08:53:39.747Z,92.46
2017-08-23T08:54:40.390Z,92.46
2017-08-23T08:55:41.028Z,92.46
2017-08-23T08:56:41.671Z,92.17
2017-08-23T08:57:42.307Z,92.36
2017-08-23T08:58:42.939Z,92.85
2017-08-23T08:59:43.583Z,92.08
2017-08-23T09:00:44.212Z,92.08
2017-08-23T09:01:45.055Z,91.78
2017-08-23T09:02:45.692Z,92.17
2017-08-23T09:03:46.332Z,91.78
2017-08-23T09:04:46.971Z,91.60
2017-08-23T09:05:47.603Z,91.69
2017-08-23T09:06:48.240Z,91.88
2017-08-23T09:07:48.876Z,92.36
2017-08-23T09:08:49.514Z,91.64
2017-08-23T09:09:50.305Z,91.74
2017-08-23T09:10:50.943Z,92.41
2017-08-23T09:11:51.574Z,92.41
2017-08-23T09:12:52.211Z,92.32
2017-08-23T09:13:52.860Z,91.83
2017-08-23T09:14:53.493Z,92.12
2017-08-23T09:15:54.132Z,90.96
2017-08-23T09:16:54.770Z,90.96
2017-08-23T09:17:55.606Z,91.93
2017-08-23T09:18:56.244Z,91.83
2017-08-23T09:19:56.883Z,91.93
2017-08-23T09:20:57.522Z,92.22
2017-08-23T09:21:58.161Z,91.83
2017-08-23T09:24:00.431Z,90.29
2017-08-23T09:25:01.065Z,90.87
2017-08-23T09:26:01.851Z,91.06
2017-08-23T09:27:02.489Z,91.25
2017-08-23T09:28:03.126Z,91.49
2017-08-23T09:29:03.776Z,91.49
2017-08-23T09:30:04.399Z,91.01
2017-08-23T09:32:06.666Z,91.49
2017-08-23T09:33:07.303Z,90.81
2017-08-23T09:34:07.945Z,91.68
2017-08-23T09:35:08.784Z,89.56
2017-08-23T09:36:09.417Z,89.75
2017-08-23T09:37:10.070Z,90.72
2017-08-23T09:38:10.759Z,89.85
2017-08-23T09:39:11.391Z,90.23
2017-08-23T09:40:12.039Z,89.95
2017-08-23T09:41:12.679Z,89.95
2017-08-23T09:42:13.316Z,90.62
2017-08-23T09:43:14.248Z,90.53
2017-08-23T09:44:14.889Z,90.81
2017-08-23T09:45:15.529Z,90.14
2017-08-23T09:46:16.162Z,90.14
2017-08-23T09:47:16.803Z,90.62
2017-08-23T09:48:17.445Z,89.95
2017-08-23T09:49:18.077Z,90.05
2017-08-23T09:50:18.722Z,90.14
2017-08-23T09:51:19.505Z,90.33
2017-08-23T09:52:20.147Z,90.72
2017-08-23T09:53:20.832Z,90.53
2017-08-23T09:54:21.468Z,90.14
2017-08-23T09:55:22.110Z,90.53
2017-08-23T09:56:22.742Z,90.53
2017-08-23T09:57:23.377Z,90.53
2017-08-23T09:58:24.020Z,90.33
2017-08-23T09:59:24.857Z,90.14
2017-08-23T10:00:25.495Z,90.72
2017-08-23T10:01:26.140Z,90.14
2017-08-23T10:02:26.769Z,90.14
2017-08-23T10:03:27.408Z,89.85
2017-08-23T10:04:28.049Z,89.75
2017-08-23T10:05:28.680Z,89.75
2017-08-23T10:06:29.322Z,89.85
2017-08-23T10:07:29.968Z,90.23
2017-08-23T10:08:30.800Z,90.53
2017-08-23T10:09:31.441Z,90.23
2017-08-23T10:10:32.075Z,90.47
2017-08-23T10:11:32.713Z,90.14
2017-08-23T10:12:33.350Z,90.37
2017-08-23T10:13:33.984Z,90.67
2017-08-23T10:14:34.626Z,90.37
2017-08-23T10:15:35.266Z,90.57
2017-08-23T10:16:36.054Z,90.28
2017-08-23T10:17:36.689Z,90.37
2017-08-23T10:18:37.333Z,90.67
2017-08-23T10:19:37.980Z,90.28
2017-08-23T10:20:38.616Z,90.57
2017-08-23T10:21:39.247Z,90.67
2017-08-23T10:22:39.884Z,90.37
2017-08-23T10:23:40.519Z,89.51
2017-08-23T10:24:41.356Z,90.57
2017-08-23T10:25:42.003Z,90.47
2017-08-23T10:26:42.635Z,90.67
2017-08-23T10:27:43.278Z,89.61
2017-08-23T10:28:43.919Z,89.12
2017-08-23T10:29:44.551Z,90.19
2017-08-23T10:30:45.193Z,89.89
2017-08-23T10:31:45.828Z,89.31
2017-08-23T10:32:46.613Z,89.12
2017-08-23T10:33:47.249Z,89.70
2017-08-23T10:34:47.841Z,90.19
2017-08-23T10:35:48.475Z,89.89
2017-08-23T10:36:49.112Z,89.99
2017-08-23T10:37:49.749Z,89.99
2017-08-23T10:38:50.386Z,89.99
2017-08-23T10:39:51.028Z,89.99
2017-08-23T10:40:51.868Z,90.19
2017-08-23T10:41:52.502Z,89.22
2017-08-23T10:42:53.145Z,88.64
2017-08-23T10:43:53.785Z,89.22
2017-08-23T10:44:54.424Z,89.31
2017-08-23T10:45:55.067Z,89.61
2017-08-23T10:46:55.705Z,89.41
2017-08-23T10:47:56.341Z,89.22
2017-08-23T10:48:56.983Z,88.64
2017-08-23T10:49:57.765Z,88.93
2017-08-23T10:50:58.403Z,89.03
2017-08-23T10:51:59.041Z,89.03
2017-08-23T10:52:59.676Z,89.22
2017-08-23T10:54:00.314Z,89.41
2017-08-23T10:55:00.962Z,89.31
2017-08-23T10:56:01.597Z,88.20
2017-08-23T10:57:02.237Z,88.54
2017-08-23T10:58:03.075Z,88.64
2017-08-23T10:59:03.713Z,88.64
2017-08-23T11:00:04.355Z,88.49
2017-08-23T11:01:04.984Z,88.68
2017-08-23T11:02:05.621Z,88.83
2017-08-23T11:03:06.275Z,88.59
2017-08-23T11:04:06.897Z,88.68
2017-08-23T11:05:07.544Z,88.10
2017-08-23T11:06:08.381Z,88.29
2017-08-23T11:07:09.019Z,88.39
2017-08-23T11:08:09.652Z,88.49
2017-08-23T11:09:10.295Z,88.59
2017-08-23T11:10:10.933Z,88.78
2017-08-23T11:11:11.568Z,88.01
2017-08-23T11:12:12.204Z,88.01
2017-08-23T11:13:12.842Z,88.10
2017-08-23T11:14:13.630Z,87.71
2017-08-23T11:15:14.223Z,87.81
2017-08-23T11:16:14.812Z,87.91
2017-08-23T11:17:15.450Z,87.71
2017-08-23T11:18:16.087Z,87.91
2017-08-23T11:19:16.669Z,87.43
2017-08-23T11:20:17.312Z,88.01
2017-08-23T11:21:17.953Z,87.81
2017-08-23T11:22:18.588Z,87.33
2017-08-23T11:23:19.435Z,87.23
2017-08-23T11:24:20.080Z,87.33
2017-08-23T11:25:20.777Z,87.43
2017-08-23T11:26:21.406Z,86.85
2017-08-23T11:27:22.049Z,87.04
2017-08-23T11:28:22.686Z,86.94
2017-08-23T11:29:23.321Z,86.94
2017-08-23T11:30:23.969Z,86.27
2017-08-23T11:31:24.897Z,85.88
2017-08-23T11:32:25.539Z,85.98
2017-08-23T11:33:26.178Z,86.07
2017-08-23T11:34:26.814Z,86.46
2017-08-23T11:35:27.448Z,85.98
2017-08-23T11:36:28.036Z,86.27
2017-08-23T11:37:28.680Z,86.07
2017-08-23T11:38:29.312Z,86.07
2017-08-23T11:39:30.257Z,86.46
2017-08-23T11:40:30.895Z,86.46
2017-08-23T11:41:31.527Z,86.46
2017-08-23T11:42:32.162Z,86.41
2017-08-23T11:43:32.800Z,85.11
2017-08-23T11:44:33.441Z,85.78
2017-08-23T11:45:34.079Z,85.78
2017-08-23T11:46:34.712Z,85.78
2017-08-23T11:47:35.500Z,86.17
2017-08-23T11:48:36.141Z,85.98
2017-08-23T11:49:36.782Z,85.83
2017-08-23T11:50:37.422Z,85.69
2017-08-23T11:51:38.062Z,85.49
2017-08-23T11:52:38.697Z,85.88
2017-08-23T11:53:39.333Z,86.17
2017-08-23T11:54:39.972Z,86.07
2017-08-23T11:55:40.810Z,85.44
2017-08-23T11:56:41.452Z,84.63
2017-08-23T11:57:42.087Z,84.67
2017-08-23T11:58:42.724Z,85.30
2017-08-23T11:59:43.371Z,85.11
2017-08-23T12:00:44.006Z,85.78
2017-08-23T12:01:44.662Z,84.86
2017-08-23T12:02:45.289Z,84.28
2017-08-23T12:03:45.923Z,83.31
2017-08-23T12:04:46.808Z,84.09
2017-08-23T12:05:47.453Z,85.05
2017-08-23T12:06:48.086Z,85.15
2017-08-23T12:07:48.728Z,84.86
2017-08-23T12:08:49.368Z,85.05
2017-08-23T12:09:50.012Z,84.19
2017-08-23T12:10:50.655Z,84.37
2017-08-23T12:11:51.294Z,84.19
2017-08-23T12:12:52.083Z,84.19
2017-08-23T12:13:52.725Z,84.37
2017-08-23T12:14:53.364Z,84.57
2017-08-23T12:15:53.999Z,84.09
2017-08-23T12:16:54.636Z,83.99
2017-08-23T12:17:55.275Z,84.28
2017-08-23T12:18:55.914Z,84.19
2017-08-23T12:19:56.549Z,84.19
2017-08-23T12:20:57.391Z,85.05
2017-08-23T12:21:58.031Z,84.67
2017-08-23T12:22:58.671Z,84.77
2017-08-23T12:23:59.306Z,84.67
2017-08-23T12:24:59.952Z,84.09
2017-08-23T12:26:00.642Z,85.15
2017-08-23T12:27:01.285Z,84.47
2017-08-23T12:28:01.926Z,84.67
2017-08-23T12:29:02.820Z,85.25
2017-08-23T12:30:03.458Z,84.77
2017-08-23T12:31:04.094Z,84.09
2017-08-23T12:32:04.885Z,84.09
2017-08-23T12:33:05.525Z,84.19
2017-08-23T12:34:06.123Z,84.67
2017-08-23T12:35:06.759Z,84.28
2017-08-23T12:36:07.391Z,84.19
2017-08-23T12:37:08.039Z,84.09
2017-08-23T12:38:08.670Z,84.57
2017-08-23T12:39:09.310Z,84.57
2017-08-23T12:40:10.202Z,84.57
2017-08-23T12:41:10.789Z,84.28
2017-08-23T12:42:11.430Z,84.19
2017-08-23T12:43:12.073Z,84.57
2017-08-23T12:44:12.705Z,84.57
2017-08-23T12:45:13.341Z,84.19
2017-08-23T12:46:13.985Z,84.28
2017-08-23T12:47:14.624Z,84.47
2017-08-23T12:48:15.269Z,84.28
2017-08-23T12:49:16.103Z,84.37
2017-08-23T12:50:16.734Z,84.19
2017-08-23T12:51:17.373Z,84.09
2017-08-23T12:52:18.008Z,84.47
2017-08-23T12:53:18.648Z,84.57
2017-08-23T12:54:19.286Z,84.09
2017-08-23T12:55:19.922Z,84.47
2017-08-23T12:56:20.569Z,84.90
2017-08-23T12:57:21.353Z,84.90
2017-08-23T12:58:21.990Z,85.05
2017-08-23T12:59:22.627Z,85.53
2017-08-23T13:00:23.275Z,85.93
2017-08-23T13:01:23.911Z,86.02
2017-08-23T13:02:24.546Z,86.11
2017-08-23T13:03:25.192Z,85.73
2017-08-23T13:04:25.831Z,85.63
2017-08-23T13:05:26.766Z,86.11
2017-08-23T13:06:27.402Z,86.06
2017-08-23T13:07:28.042Z,86.16
2017-08-23T13:08:28.630Z,85.68
2017-08-23T13:09:29.224Z,85.58
2017-08-23T13:10:29.856Z,85.35
2017-08-23T13:11:30.494Z,85.19
2017-08-23T13:12:31.132Z,85.19
2017-08-23T13:13:31.823Z,85.29
2017-08-23T13:14:32.457Z,84.71
2017-08-23T13:15:33.093Z,84.90
2017-08-23T13:16:33.741Z,85.29
2017-08-23T13:17:34.373Z,84.90
2017-08-23T13:18:35.015Z,85.39
2017-08-23T13:19:35.648Z,85.39
2017-08-23T13:20:36.292Z,85.29
2017-08-23T13:21:36.923Z,84.90
2017-08-23T13:22:37.759Z,84.90
2017-08-23T13:23:38.408Z,84.90
2017-08-23T13:24:39.043Z,85.29
2017-08-23T13:25:39.685Z,85.29
2017-08-23T13:26:40.324Z,84.61
2017-08-23T13:27:40.967Z,83.94
2017-08-23T13:28:41.605Z,85.10
2017-08-23T13:29:42.239Z,84.90
2017-08-23T13:30:43.183Z,84.90
2017-08-23T13:31:43.817Z,85.29
2017-08-23T13:32:44.461Z,85.39
2017-08-23T13:33:45.103Z,85.29
2017-08-23T13:34:45.736Z,84.90
2017-08-23T13:35:46.379Z,85.29
2017-08-23T13:36:47.017Z,85.29
2017-08-23T13:37:47.659Z,85.10
2017-08-23T13:38:48.505Z,85.29
2017-08-23T13:39:49.143Z,85.29
2017-08-23T13:40:49.777Z,85.10
2017-08-23T13:41:50.421Z,85.10
2017-08-23T13:42:51.055Z,85.10
2017-08-23T13:43:51.692Z,85.10
2017-08-23T13:44:52.332Z,85.58
2017-08-23T13:45:52.972Z,85.97
2017-08-23T13:46:53.818Z,85.39
2017-08-23T13:47:54.460Z,85.58
2017-08-23T13:48:55.098Z,85.58
2017-08-23T13:49:55.733Z,85.68
2017-08-23T13:50:56.376Z,85.58
2017-08-23T13:51:57.007Z,85.48
2017-08-23T13:52:57.646Z,85.19
2017-08-23T13:53:58.284Z,85.00
2017-08-23T13:54:59.121Z,85.87
2017-08-23T13:55:59.714Z,85.68
2017-08-23T13:57:00.349Z,85.58
2017-08-23T13:58:00.986Z,84.90
2017-08-23T13:59:01.622Z,85.39